WIDD/BTH METAR and TAF weather

Enter ICAO airport designator
Station Type Date Time Source
WIDD METAR 2020/12/01 16:30 UTC NOAA

WIDD 011630Z 00000KT 9999 FEW014 27/26 Q1011 NOSIG


Station Type Date Time Source
WIDD Decoded METAR 2020/12/01 16:30 UTC NOAA

Station name not available
Dec 01, 2020 - 11:30 AM EST / 2020.12.01 1630 UTC
Wind: Calm:0
Visibility: greater than 7 mile(s):0
Sky conditions: mostly clear
Temperature: 80 F (27 C)
Dew Point: 78 F (26 C)
Relative Humidity: 94%
Pressure (altimeter): 29.85 in. Hg (1011 hPa)
ob: WIDD 011630Z 00000KT 9999 FEW014 27/26 Q1011 NOSIG
cycle: 16

Station Type Date Time Source
WIDD TAF 2020/12/01 12:00 UTC NOAA

TAF WIDD 011100Z 0112/0212 29003KT 9999 FEW014=

Example: see airport list